Time;durP1;ratioP1;P1;durP2;ratioP2;P2;SDS_P1;SDS_P2;PMS_P1;PMS_P2;Temp;Humidity;BMP_temperature;BMP_pressure;BME280_temperature;BME280_humidity;BME280_pressure;Samples;Min_cycle;Max_cycle;Signal;HPM_P1;HPM_P2
2023/03/25 00:01:33;;;;;;;0.00;0.00;;;9.30;99.90;;;;;;5100984;27;20039;-84
2023/03/25 00:04:00;;;;;;;0.00;0.00;;;9.30;99.90;;;;;;5135961;27;20074;-84
2023/03/25 00:06:26;;;;;;;;;;;9.30;99.90;;;;;;5136329;27;20039;-83
2023/03/25 00:08:53;;;;;;;0.10;0.00;;;9.30;99.90;;;;;;5117522;27;19919;-83
2023/03/25 00:11:19;;;;;;;0.25;0.13;;;9.30;99.90;;;;;;5135746;27;20188;-84
2023/03/25 00:13:44;;;;;;;0.00;0.00;;;9.30;99.90;;;;;;5117259;27;20047;-84
2023/03/25 00:16:10;;;;;;;0.13;0.07;;;9.30;99.90;;;;;;5135404;27;20047;-84
2023/03/25 00:18:36;;;;;;;0.30;0.30;;;9.30;99.90;;;;;;5083901;27;20108;-83
2023/03/25 00:21:04;;;;;;;0.20;0.20;;;9.20;99.90;;;;;;5135461;27;20083;-83
2023/03/25 00:23:31;;;;;;;0.98;0.15;;;9.20;99.90;;;;;;5117296;27;20129;-83
2023/03/25 00:26:00;;;;;;;0.05;0.00;;;9.10;99.90;;;;;;5135382;27;20039;-83
2023/03/25 00:28:29;;;;;;;0.10;0.10;;;9.10;99.90;;;;;;5117327;27;20039;-84
2023/03/25 00:31:15;;;;;;;0.10;0.10;;;9.10;99.90;;;;;;5116957;27;20035;-84
2023/03/25 00:33:41;;;;;;;0.00;0.00;;;9.10;99.90;;;;;;5117445;27;20104;-83
2023/03/25 00:36:08;;;;;;;0.10;0.07;;;9.10;99.90;;;;;;5116189;28;20043;-83
2023/03/25 00:38:34;;;;;;;;;;;9.10;99.90;;;;;;5117180;27;20047;-83
2023/03/25 00:41:24;;;;;;;0.00;0.00;;;9.10;99.90;;;;;;5116914;27;19919;-83
2023/03/25 00:43:55;;;;;;;0.10;0.10;;;9.10;99.90;;;;;;5134816;27;20047;-84
2023/03/25 00:46:22;;;;;;;0.00;0.00;;;9.20;99.90;;;;;;5116671;27;20489;-83
2023/03/25 00:48:49;;;;;;;0.15;0.10;;;9.10;99.90;;;;;;5134748;27;20343;-88
2023/03/25 00:51:20;;;;;;;0.13;0.10;;;8.90;99.90;;;;;;5116479;27;20039;-83
2023/03/25 00:53:47;;;;;;;0.20;0.20;;;8.90;99.90;;;;;;5116571;27;20047;-82
2023/03/25 00:56:13;;;;;;;3.53;1.00;;;8.70;99.90;;;;;;5116252;27;20552;-82
2023/03/25 00:58:39;;;;;;;0.22;0.20;;;8.70;99.90;;;;;;5134792;27;20096;-83
2023/03/25 01:01:11;;;;;;;0.00;0.00;;;8.60;99.90;;;;;;5116257;27;20043;-83
2023/03/25 01:03:44;;;;;;;0.10;0.10;;;8.50;99.90;;;;;;5116623;27;20086;-83
2023/03/25 01:06:15;;;;;;;0.20;0.20;;;8.40;99.90;;;;;;5134272;27;20081;-83
2023/03/25 01:08:42;;;;;;;0.85;0.10;;;8.40;99.90;;;;;;5116260;27;20054;-82
2023/03/25 01:11:23;;;;;;;0.10;0.10;;;8.30;99.90;;;;;;5134223;27;20095;-83
2023/03/25 01:13:50;;;;;;;0.28;0.20;;;8.20;99.90;;;;;;5116456;27;20050;-89
2023/03/25 01:16:16;;;;;;;0.00;0.00;;;8.20;99.90;;;;;;5134230;27;20485;-83
2023/03/25 01:18:41;;;;;;;0.40;0.10;;;8.20;99.90;;;;;;5116430;27;20051;-83
2023/03/25 01:21:08;;;;;;;0.30;0.30;;;8.20;99.90;;;;;;5115553;27;20035;-83
2023/03/25 01:23:34;;;;;;;0.00;0.00;;;8.10;99.90;;;;;;5116460;27;20043;-83
2023/03/25 01:26:00;;;;;;;0.43;0.35;;;8.10;99.90;;;;;;5134285;27;20047;-82
2023/03/25 01:28:26;;;;;;;0.00;0.00;;;8.00;99.90;;;;;;5116106;27;20046;-81
2023/03/25 01:31:05;;;;;;;0.05;0.05;;;8.00;99.90;;;;;;5099436;27;20086;-88
2023/03/25 01:33:32;;;;;;;0.00;0.00;;;7.90;99.90;;;;;;5134510;27;20419;-82
2023/03/25 01:36:01;;;;;;;0.43;0.43;;;8.00;99.90;;;;;;5116017;27;20047;-82
2023/03/25 01:38:29;;;;;;;0.00;0.00;;;7.90;99.90;;;;;;5116268;27;20039;-81
2023/03/25 01:40:56;;;;;;;0.17;0.17;;;7.90;99.90;;;;;;5116308;27;20100;-83
2023/03/25 01:43:22;;;;;;;0.20;0.05;;;7.90;99.90;;;;;;5134754;27;20409;-82
2023/03/25 01:45:49;;;;;;;;;;;7.90;99.90;;;;;;5116355;27;20519;-82
2023/03/25 01:48:21;;;;;;;0.45;0.40;;;7.90;99.90;;;;;;5115289;27;19974;-82
2023/03/25 01:51:10;;;;;;;1.35;0.10;;;7.90;99.90;;;;;;5134353;27;20069;-82
2023/03/25 01:53:36;;;;;;;0.10;0.10;;;7.90;99.90;;;;;;5109926;27;20557;-82
2023/03/25 01:56:05;;;;;;;0.08;0.08;;;7.90;99.90;;;;;;5133604;27;20099;-86
2023/03/25 01:58:34;;;;;;;0.20;0.20;;;7.80;99.90;;;;;;5115930;27;20052;-82
2023/03/25 02:01:01;;;;;;;0.00;0.00;;;7.80;99.90;;;;;;5115420;27;20484;-83
2023/03/25 02:03:29;;;;;;;0.20;0.17;;;7.90;99.90;;;;;;5115470;27;20051;-86
2023/03/25 02:06:02;;;;;;;0.10;0.10;;;7.80;99.90;;;;;;5133610;27;20374;-83
2023/03/25 02:08:32;;;;;;;0.20;0.08;;;7.90;99.90;;;;;;5115503;27;20042;-82
2023/03/25 02:10:58;;;;;;;0.00;0.00;;;7.90;99.90;;;;;;5133512;27;20389;-88
2023/03/25 02:13:24;;;;;;;0.20;0.20;;;7.90;99.90;;;;;;5133636;28;20083;-82
2023/03/25 02:15:59;;;;;;;0.13;0.13;;;7.90;99.90;;;;;;5133695;28;20050;-83
2023/03/25 02:18:39;;;;;;;0.20;0.17;;;7.90;99.90;;;;;;5133815;28;20404;-83
2023/03/25 02:21:44;;;;;;;0.20;0.20;;;7.90;99.90;;;;;;5115562;28;20078;-82
2023/03/25 02:24:42;;;;;;;0.10;0.10;;;7.90;99.90;;;;;;5098712;28;20469;-83
2023/03/25 02:27:44;;;;;;;0.30;0.30;;;7.90;99.90;;;;;;5098254;28;20039;-83
2023/03/25 02:30:16;;;;;;;0.20;0.20;;;7.90;99.90;;;;;;5115109;28;20043;-82
2023/03/25 02:33:24;;;;;;;0.22;0.10;;;7.90;99.90;;;;;;5115219;28;20405;-83
2023/03/25 02:36:23;;;;;;;0.25;0.25;;;7.90;99.90;;;;;;5095288;28;20396;-82
2023/03/25 02:38:58;;;;;;;0.10;0.10;;;7.90;99.90;;;;;;5115458;28;20047;-83
2023/03/25 02:41:40;;;;;;;0.10;0.10;;;7.90;99.90;;;;;;5115084;28;20078;-83
2023/03/25 02:44:11;;;;;;;0.00;0.00;;;7.90;99.90;;;;;;5098065;28;20099;-83
2023/03/25 02:46:43;;;;;;;0.10;0.08;;;7.90;99.90;;;;;;5115335;28;20047;-83
2023/03/25 02:49:18;;;;;;;0.20;0.20;;;7.90;99.90;;;;;;5132841;28;20047;-83
2023/03/25 02:51:51;;;;;;;0.28;0.20;;;7.90;99.90;;;;;;5133263;28;20039;-84
2023/03/25 02:54:20;;;;;;;0.10;0.10;;;7.80;99.90;;;;;;5097950;28;20050;-83
2023/03/25 02:56:47;;;;;;;0.00;0.00;;;7.90;99.90;;;;;;5133156;28;20039;-83
2023/03/25 02:59:17;;;;;;;0.00;0.00;;;7.80;99.90;;;;;;5132841;27;20046;-83
2023/03/25 03:01:44;;;;;;;0.10;0.10;;;7.80;99.90;;;;;;5118701;27;20082;-83
2023/03/25 03:04:10;;;;;;;0.00;0.00;;;7.80;99.90;;;;;;5136762;27;20053;-83
2023/03/25 03:06:40;;;;;;;1.50;0.20;;;7.80;99.90;;;;;;5137450;27;20043;-85
2023/03/25 03:09:33;;;;;;;0.15;0.15;;;7.80;99.90;;;;;;5136888;27;20046;-88
2023/03/25 03:12:11;;;;;;;0.10;0.10;;;7.80;99.90;;;;;;5136594;27;20423;-85
2023/03/25 03:15:03;;;;;;;0.10;0.10;;;7.80;99.90;;;;;;5119143;27;20538;-83
2023/03/25 03:17:54;;;;;;;1.05;0.10;;;7.80;99.90;;;;;;5101157;27;20417;-83
2023/03/25 03:20:59;;;;;;;0.28;0.10;;;7.70;99.90;;;;;;5118818;27;20476;-82
2023/03/25 03:23:35;;;;;;;2.55;0.40;;;7.70;99.90;;;;;;5118650;27;20043;-82
2023/03/25 03:26:13;;;;;;;0.55;0.10;;;7.70;99.90;;;;;;5119027;27;20047;-82
2023/03/25 03:28:51;;;;;;;0.10;0.00;;;7.70;99.90;;;;;;5136739;27;20096;-87
2023/03/25 03:31:52;;;;;;;0.15;0.10;;;7.70;99.90;;;;;;5100904;27;20036;-88
2023/03/25 03:34:33;;;;;;;0.20;0.20;;;7.70;99.90;;;;;;5059330;28;20048;-87
2023/03/25 03:37:00;;;;;;;0.45;0.20;;;7.80;99.90;;;;;;5113935;27;20051;-87
2023/03/25 03:39:39;;;;;;;0.10;0.10;;;7.70;99.90;;;;;;5084150;27;20137;-87
2023/03/25 03:42:19;;;;;;;0.20;0.15;;;7.10;99.90;;;;;;5101368;27;20047;-87
2023/03/25 03:44:49;;;;;;;0.30;0.30;;;7.70;99.90;;;;;;5101315;27;20047;-87
2023/03/25 03:47:22;;;;;;;5.57;2.30;;;7.70;99.90;;;;;;5117989;27;20105;-87
2023/03/25 03:49:59;;;;;;;0.20;0.20;;;7.70;99.90;;;;;;5118266;27;20157;-88
2023/03/25 03:52:32;;;;;;;0.47;0.47;;;7.70;99.90;;;;;;5117520;27;20039;-88
2023/03/25 03:55:09;;;;;;;0.25;0.17;;;7.70;99.90;;;;;;5101354;27;20047;-88
2023/03/25 03:57:49;;;;;;;0.30;0.13;;;7.70;99.90;;;;;;5117879;27;20058;-87
2023/03/25 04:00:21;;;;;;;0.80;0.22;;;7.70;99.90;;;;;;5100420;27;20436;-88
2023/03/25 04:02:54;;;;;;;0.73;0.30;;;7.60;99.90;;;;;;5117703;27;20435;-88
2023/03/25 04:05:22;;;;;;;0.17;0.17;;;7.70;99.90;;;;;;5100553;27;20051;-87
2023/03/25 04:08:34;;;;;;;0.00;0.00;;;7.70;99.90;;;;;;5100744;27;20432;-88
2023/03/25 04:11:15;;;;;;;0.10;0.10;;;7.60;99.90;;;;;;5098802;27;20054;-88
2023/03/25 04:13:43;;;;;;;0.10;0.10;;;7.60;99.90;;;;;;5100176;27;20043;-88
2023/03/25 04:16:09;;;;;;;0.10;0.08;;;7.60;99.90;;;;;;5102236;27;20062;-87
2023/03/25 04:18:35;;;;;;;0.22;0.22;;;7.60;99.90;;;;;;5114888;28;20109;-88
2023/03/25 04:21:01;;;;;;;0.40;0.13;;;7.60;99.90;;;;;;5097651;28;20047;-88
2023/03/25 04:23:30;;;;;;;0.10;0.10;;;7.60;99.90;;;;;;5096324;28;20481;-88
2023/03/25 04:25:56;;;;;;;1.08;0.10;;;7.70;99.90;;;;;;5080524;28;20303;-88
2023/03/25 04:28:24;;;;;;;0.10;0.10;;;7.60;99.90;;;;;;5078895;28;20135;-88
2023/03/25 04:30:54;;;;;;;0.35;0.28;;;7.60;99.90;;;;;;5080053;28;20097;-88
2023/03/25 04:33:23;;;;;;;0.30;0.30;;;7.60;99.90;;;;;;5079690;28;20048;-88
2023/03/25 04:35:50;;;;;;;0.20;0.20;;;7.60;99.90;;;;;;5096922;28;20043;-88
2023/03/25 04:38:17;;;;;;;0.00;0.00;;;7.60;99.90;;;;;;5063273;28;20040;-88
2023/03/25 04:40:46;;;;;;;0.00;0.00;;;7.60;99.90;;;;;;5079551;28;20134;-88
2023/03/25 04:43:18;;;;;;;0.22;0.20;;;7.60;99.90;;;;;;5079815;28;20054;-88
2023/03/25 04:45:52;;;;;;;0.22;0.05;;;7.60;99.90;;;;;;5096659;28;20054;-88
2023/03/25 04:48:30;;;;;;;0.25;0.25;;;7.60;99.90;;;;;;5079116;28;20051;-89
2023/03/25 04:51:02;;;;;;;3.13;0.55;;;7.50;99.90;;;;;;5079726;28;20116;-88
2023/03/25 04:53:29;;;;;;;0.75;0.47;;;7.60;99.90;;;;;;5079399;28;20079;-88
2023/03/25 04:55:57;;;;;;;;;;;7.50;99.90;;;;;;5083806;28;20043;-88
2023/03/25 04:58:23;;;;;;;0.20;0.17;;;7.60;99.90;;;;;;5096297;28;19926;-88
2023/03/25 05:00:50;;;;;;;0.20;0.10;;;7.50;99.90;;;;;;5079799;28;20142;-88
2023/03/25 05:03:22;;;;;;;0.13;0.13;;;7.60;99.90;;;;;;5095967;28;20044;-88
2023/03/25 05:05:50;;;;;;;0.88;0.43;;;7.50;99.90;;;;;;5096298;28;20048;-88
2023/03/25 05:08:17;;;;;;;0.30;0.30;;;7.50;99.90;;;;;;5079306;28;20389;-88
2023/03/25 05:10:43;;;;;;;0.45;0.38;;;7.50;99.90;;;;;;5078800;28;20073;-88
2023/03/25 05:13:09;;;;;;;0.67;0.23;;;7.50;99.90;;;;;;5078991;28;20130;-87
2023/03/25 05:15:39;;;;;;;0.63;0.25;;;7.50;99.90;;;;;;5095825;28;20281;-88
2023/03/25 05:18:14;;;;;;;0.50;0.47;;;7.50;99.90;;;;;;5095069;28;20083;-88
2023/03/25 05:20:45;;;;;;;0.20;0.10;;;7.50;99.90;;;;;;5078875;28;20044;-88
2023/03/25 05:23:16;;;;;;;0.65;0.43;;;7.50;99.90;;;;;;5078006;28;20047;-88
2023/03/25 05:25:50;;;;;;;0.22;0.22;;;7.50;99.90;;;;;;5095538;28;20466;-88
2023/03/25 05:28:19;;;;;;;0.20;0.20;;;7.50;99.90;;;;;;5079099;28;20446;-88
2023/03/25 05:30:46;;;;;;;0.10;0.10;;;7.50;99.90;;;;;;5078822;28;20043;-88
2023/03/25 05:33:14;;;;;;;0.47;0.20;;;7.60;99.90;;;;;;5095831;28;20043;-88
2023/03/25 05:35:41;;;;;;;0.28;0.20;;;7.50;99.90;;;;;;5078392;28;20398;-88
2023/03/25 05:38:08;;;;;;;0.68;0.30;;;7.60;99.90;;;;;;5078884;28;20477;-88
2023/03/25 05:40:37;;;;;;;0.17;0.17;;;7.50;99.90;;;;;;5078482;28;20138;-88
2023/03/25 05:43:05;;;;;;;0.17;0.17;;;7.50;99.90;;;;;;5062133;28;20055;-88
2023/03/25 05:45:34;;;;;;;0.68;0.45;;;7.60;99.90;;;;;;5078239;28;20058;-88
2023/03/25 05:48:02;;;;;;;0.28;0.20;;;7.60;99.90;;;;;;5095283;28;20558;-88
2023/03/25 05:50:31;;;;;;;0.20;0.20;;;7.90;99.90;;;;;;5095175;28;20092;-88
2023/03/25 05:52:58;;;;;;;0.22;0.20;;;7.60;99.90;;;;;;5078374;28;20474;-88
2023/03/25 05:55:25;;;;;;;0.52;0.52;;;7.50;99.90;;;;;;5078672;28;20051;-88
2023/03/25 05:57:51;;;;;;;;;;;7.50;99.90;;;;;;5078528;28;20557;-89
2023/03/25 06:00:20;;;;;;;0.40;0.10;;;7.50;99.90;;;;;;5095095;28;19970;-89
2023/03/25 06:02:47;;;;;;;0.10;0.10;;;7.50;99.90;;;;;;5094503;28;20056;-88
2023/03/25 06:05:14;;;;;;;0.30;0.30;;;7.80;99.90;;;;;;5077818;28;20050;-88
2023/03/25 06:07:46;;;;;;;1.00;0.57;;;7.50;99.90;;;;;;5094994;28;20143;-89
2023/03/25 06:10:16;;;;;;;0.43;0.17;;;7.50;99.90;;;;;;5078737;28;20051;-88
2023/03/25 06:12:46;;;;;;;0.55;0.55;;;7.60;99.90;;;;;;5077731;28;20044;-89
2023/03/25 06:15:16;;;;;;;0.45;0.38;;;7.60;99.90;;;;;;5078517;28;20075;-89
2023/03/25 06:18:01;;;;;;;0.52;0.40;;;7.60;99.90;;;;;;5078730;28;20058;-96
2023/03/25 06:20:30;;;;;;;0.60;0.45;;;7.30;99.90;;;;;;5112103;28;20051;-95
2023/03/25 06:23:05;;;;;;;1.65;0.35;;;7.60;99.90;;;;;;5078483;28;20040;-92
2023/03/25 06:26:03;;;;;;;0.52;0.20;;;7.50;99.90;;;;;;5094929;28;20048;-92
2023/03/25 06:29:02;;;;;;;0.55;0.35;;;8.10;99.90;;;;;;5078237;28;20058;-93
2023/03/25 06:31:40;;;;;;;0.10;0.10;;;7.60;99.90;;;;;;5066740;28;20056;-93
2023/03/25 06:34:06;;;;;;;0.00;0.00;;;7.70;99.90;;;;;;5080009;28;20101;-91
2023/03/25 06:36:38;;;;;;;0.40;0.40;;;7.60;99.90;;;;;;5102720;28;20031;-96
2023/03/25 06:39:04;;;;;;;0.17;0.17;;;7.00;99.90;;;;;;5102069;28;20040;-95
2023/03/25 06:41:30;;;;;;;0.10;0.05;;;7.00;99.90;;;;;;5101142;28;20048;-91
2023/03/25 06:43:56;;;;;;;0.03;0.03;;;7.50;99.90;;;;;;5084049;28;20058;-94
2023/03/25 06:46:22;;;;;;;0.47;0.30;;;7.50;99.90;;;;;;5083043;28;20051;-91
2023/03/25 06:48:53;;;;;;;0.10;0.10;;;7.60;99.90;;;;;;5105042;28;20388;-91
2023/03/25 06:51:20;;;;;;;0.30;0.30;;;7.60;99.90;;;;;;5099363;28;20039;-91
2023/03/25 06:53:46;;;;;;;0.10;0.10;;;7.50;99.90;;;;;;5099222;28;20039;-91
2023/03/25 06:56:12;;;;;;;0.20;0.20;;;7.50;99.90;;;;;;5081906;28;20054;-85
2023/03/25 06:58:40;;;;;;;0.10;0.10;;;7.50;99.90;;;;;;5081634;28;20050;-86
2023/03/25 07:01:06;;;;;;;0.13;0.13;;;7.50;99.90;;;;;;5098579;28;20047;-91
2023/03/25 07:03:33;;;;;;;0.00;0.00;;;7.60;99.90;;;;;;5065487;28;20055;-91
2023/03/25 07:06:08;;;;;;;;;;;7.60;99.90;;;;;;5099272;28;20051;-92
2023/03/25 07:08:36;;;;;;;0.10;0.00;;;7.60;99.90;;;;;;5081483;28;19920;-92
2023/03/25 07:11:11;;;;;;;0.10;0.10;;;7.60;99.90;;;;;;5065164;28;20058;-94
2023/03/25 07:13:44;;;;;;;0.32;0.32;;;7.70;99.90;;;;;;5081658;28;20047;-96
2023/03/25 07:16:13;;;;;;;0.22;0.22;;;8.50;99.90;;;;;;5083115;28;20085;-95
2023/03/25 07:18:39;;;;;;;0.10;0.10;;;7.80;99.90;;;;;;5078722;28;20121;-87
2023/03/25 07:21:05;;;;;;;0.43;0.20;;;7.90;99.90;;;;;;5098283;28;20059;-91
2023/03/25 07:23:31;;;;;;;0.20;0.20;;;7.90;99.90;;;;;;5098444;28;20046;-91
2023/03/25 07:26:12;;;;;;;0.00;0.00;;;7.90;99.90;;;;;;5097633;28;20544;-91
2023/03/25 07:28:39;;;;;;;0.35;0.22;;;8.00;99.90;;;;;;5065374;28;20479;-91
2023/03/25 07:31:07;;;;;;;0.20;0.20;;;8.10;99.90;;;;;;5080156;28;20504;-90
2023/03/25 07:33:33;;;;;;;0.20;0.00;;;8.10;99.90;;;;;;5097835;28;20148;-89
2023/03/25 07:35:58;;;;;;;0.23;0.23;;;8.20;99.90;;;;;;5080643;28;20493;-88
2023/03/25 07:38:24;;;;;;;0.00;0.00;;;8.20;99.90;;;;;;5097700;28;20044;-88
2023/03/25 07:40:50;;;;;;;0.00;0.00;;;8.10;99.90;;;;;;5064058;28;20130;-89
2023/03/25 07:43:18;;;;;;;0.00;0.00;;;8.00;99.90;;;;;;5080327;28;20079;-87
2023/03/25 07:45:46;;;;;;;0.45;0.20;;;8.00;99.90;;;;;;5063400;28;20158;-88
2023/03/25 07:48:14;;;;;;;0.00;0.00;;;7.90;99.90;;;;;;5064373;28;20051;-89
2023/03/25 07:50:41;;;;;;;0.10;0.10;;;7.90;99.90;;;;;;5080214;28;20066;-89
2023/03/25 07:53:07;;;;;;;;;;;7.50;99.90;;;;;;5097952;28;20122;-89
2023/03/25 07:55:34;;;;;;;0.50;0.43;;;7.80;99.90;;;;;;5080681;28;20392;-89
2023/03/25 07:58:01;;;;;;;0.00;0.00;;;7.90;99.90;;;;;;5080652;28;20374;-89
2023/03/25 08:00:28;;;;;;;0.00;0.00;;;7.90;99.90;;;;;;5081270;28;20044;-89
2023/03/25 08:02:54;;;;;;;0.20;0.13;;;7.90;99.90;;;;;;5079789;28;20093;-89
2023/03/25 08:05:20;;;;;;;0.10;0.03;;;7.90;99.90;;;;;;5097099;28;20044;-90
2023/03/25 08:07:51;;;;;;;0.37;0.17;;;7.90;99.90;;;;;;5079869;28;20120;-89
2023/03/25 08:10:17;;;;;;;0.28;0.10;;;7.90;99.90;;;;;;5064079;28;20447;-90
2023/03/25 08:12:43;;;;;;;0.52;0.52;;;8.00;99.90;;;;;;5097151;28;20039;-88
2023/03/25 08:15:13;;;;;;;0.65;0.20;;;8.00;99.90;;;;;;5079637;28;20134;-89
2023/03/25 08:17:39;;;;;;;0.00;0.00;;;8.00;99.90;;;;;;5096390;28;20052;-89
2023/03/25 08:20:06;;;;;;;0.00;0.00;;;8.10;99.90;;;;;;5098033;28;20051;-90
2023/03/25 08:22:32;;;;;;;0.00;0.00;;;8.10;99.90;;;;;;5048198;28;20088;-90
2023/03/25 08:24:58;;;;;;;0.00;0.00;;;8.00;99.90;;;;;;5063200;28;20455;-89
2023/03/25 08:27:24;;;;;;;0.00;0.00;;;7.90;99.90;;;;;;5079228;28;20039;-85
2023/03/25 08:29:59;;;;;;;0.22;0.22;;;7.80;99.90;;;;;;5079094;28;20130;-90
2023/03/25 08:32:28;;;;;;;0.00;0.00;;;8.10;99.90;;;;;;5096656;28;20039;-86
2023/03/25 08:34:59;;;;;;;0.00;0.00;;;7.10;99.90;;;;;;5079577;28;20048;-93
2023/03/25 08:37:25;;;;;;;0.10;0.08;;;7.80;99.90;;;;;;5079747;28;20138;-88
2023/03/25 08:39:54;;;;;;;0.00;0.00;;;7.90;99.90;;;;;;5080961;28;20509;-89
2023/03/25 08:42:19;;;;;;;0.08;0.08;;;8.00;99.90;;;;;;5067025;28;20492;-89
2023/03/25 08:44:45;;;;;;;0.10;0.10;;;8.00;99.90;;;;;;5063842;28;20126;-88
2023/03/25 08:47:13;;;;;;;0.33;0.30;;;7.20;99.90;;;;;;5062789;28;20091;-88
2023/03/25 08:49:39;;;;;;;0.00;0.00;;;8.10;99.90;;;;;;5096420;28;20072;-88
2023/03/25 08:52:07;;;;;;;0.00;0.00;;;8.20;99.90;;;;;;5079017;28;20130;-88
2023/03/25 08:54:33;;;;;;;0.00;0.00;;;8.30;99.90;;;;;;5079301;28;20486;-88
2023/03/25 08:56:59;;;;;;;0.17;0.17;;;8.30;99.90;;;;;;5078867;28;20047;-87
2023/03/25 08:59:24;;;;;;;1.27;0.20;;;8.50;99.90;;;;;;5079350;28;20051;-86
2023/03/25 09:01:50;;;;;;;0.27;0.10;;;8.50;99.90;;;;;;5079222;28;20039;-89
2023/03/25 09:04:16;;;;;;;1.07;0.10;;;8.60;99.90;;;;;;5079593;28;20473;-92
2023/03/25 09:06:44;;;;;;;0.10;0.10;;;8.70;99.90;;;;;;5092340;28;20126;-89
2023/03/25 09:09:12;;;;;;;0.00;0.00;;;8.80;99.90;;;;;;5113494;28;20042;-88
2023/03/25 09:11:38;;;;;;;0.20;0.20;;;9.00;99.90;;;;;;5107247;28;20126;-90
2023/03/25 09:14:04;;;;;;;0.63;0.00;;;9.10;99.90;;;;;;5113916;28;20036;-90
2023/03/25 09:16:31;;;;;;;0.10;0.10;;;9.00;99.90;;;;;;5095753;28;20086;-90
2023/03/25 09:18:57;;;;;;;0.08;0.08;;;9.00;99.90;;;;;;5083133;28;20056;-89
2023/03/25 09:21:23;;;;;;;0.10;0.10;;;8.80;99.90;;;;;;5062739;28;20127;-91
2023/03/25 09:23:49;;;;;;;0.00;0.00;;;9.20;99.90;;;;;;5079256;28;20289;-91
2023/03/25 09:26:14;;;;;;;0.00;0.00;;;9.10;99.90;;;;;;5095710;28;20473;-90
2023/03/25 09:28:40;;;;;;;0.10;0.00;;;9.00;99.90;;;;;;5079098;28;20292;-91
2023/03/25 09:31:08;;;;;;;2.90;0.87;;;8.90;99.90;;;;;;5078560;28;20059;-91
2023/03/25 09:33:34;;;;;;;0.32;0.15;;;8.90;99.90;;;;;;5064056;28;20052;-90
2023/03/25 09:36:01;;;;;;;;;;;9.10;99.90;;;;;;5079342;28;20043;-89
2023/03/25 09:38:30;;;;;;;0.13;0.10;;;9.10;99.90;;;;;;5096001;28;19920;-90
2023/03/25 09:40:56;;;;;;;0.60;0.60;;;9.10;99.90;;;;;;5078799;28;20691;-89
2023/03/25 09:43:57;;;;;;;0.25;0.13;;;9.10;99.90;;;;;;5096183;28;20123;-90
2023/03/25 09:46:23;;;;;;;0.25;0.15;;;9.00;99.90;;;;;;5079244;28;20139;-90
2023/03/25 09:48:52;;;;;;;1.10;0.65;;;8.90;99.90;;;;;;5078562;28;20083;-91
2023/03/25 09:51:28;;;;;;;0.05;0.05;;;9.00;99.90;;;;;;5078257;28;20044;-88
2023/03/25 09:54:03;;;;;;;0.80;0.25;;;9.00;99.90;;;;;;5078241;28;20044;-91
2023/03/25 09:56:33;;;;;;;0.20;0.20;;;8.90;99.90;;;;;;5095221;28;20047;-89
2023/03/25 09:59:06;;;;;;;0.30;0.22;;;8.90;99.90;;;;;;5078313;28;20051;-87
2023/03/25 10:01:43;;;;;;;0.10;0.10;;;8.70;99.90;;;;;;5078232;28;20050;-87
2023/03/25 10:04:28;;;;;;;0.55;0.13;;;8.70;99.90;;;;;;5078048;28;20039;-87
2023/03/25 10:06:59;;;;;;;0.20;0.10;;;8.60;99.90;;;;;;5078557;28;20092;-85
2023/03/25 10:09:32;;;;;;;0.20;0.05;;;8.60;99.90;;;;;;5078583;28;20126;-88
2023/03/25 10:12:17;;;;;;;0.40;0.40;;;8.60;99.90;;;;;;5079040;28;20075;-85
2023/03/25 10:15:03;;;;;;;0.00;0.00;;;8.70;99.90;;;;;;5094817;28;20481;-87
2023/03/25 10:17:55;;;;;;;0.08;0.08;;;8.80;99.90;;;;;;5077577;28;20466;-86
2023/03/25 10:20:56;;;;;;;0.00;0.00;;;8.80;99.90;;;;;;5077983;28;20043;-87
2023/03/25 10:23:35;;;;;;;0.15;0.15;;;7.90;99.90;;;;;;5077911;28;20038;-86
2023/03/25 10:26:12;;;;;;;0.10;0.10;;;8.80;99.90;;;;;;5094719;28;20123;-86
2023/03/25 10:28:42;;;;;;;;;;;8.90;99.90;;;;;;5098025;28;20040;-92
2023/03/25 10:31:16;;;;;;;0.05;0.05;;;9.00;99.90;;;;;;5098205;28;20354;-91
2023/03/25 10:33:55;;;;;;;0.40;0.38;;;9.00;99.90;;;;;;5080499;28;20437;-88
2023/03/25 10:36:39;;;;;;;0.43;0.28;;;9.00;99.90;;;;;;5077655;28;20050;-90
2023/03/25 10:39:13;;;;;;;1.60;0.30;;;9.00;99.90;;;;;;5077984;28;20083;-90
2023/03/25 10:41:42;;;;;;;0.22;0.20;;;9.10;99.90;;;;;;5077865;28;20043;-88
2023/03/25 10:44:09;;;;;;;0.20;0.20;;;9.10;99.90;;;;;;5061151;28;20140;-88
2023/03/25 10:46:42;;;;;;;1.45;0.47;;;9.10;99.90;;;;;;5077620;28;20039;-88
2023/03/25 10:49:10;;;;;;;1.05;0.25;;;9.10;99.90;;;;;;5094791;28;20044;-88
2023/03/25 10:51:36;;;;;;;0.10;0.10;;;9.20;99.90;;;;;;5094279;28;20477;-87
2023/03/25 10:54:02;;;;;;;1.15;0.35;;;9.20;99.90;;;;;;5077371;28;20134;-90
2023/03/25 10:56:34;;;;;;;0.10;0.10;;;9.30;99.90;;;;;;5095403;28;20142;-90
2023/03/25 10:59:09;;;;;;;1.73;0.30;;;9.40;99.90;;;;;;5078420;28;20036;-89
2023/03/25 11:01:41;;;;;;;1.58;0.10;;;9.40;99.90;;;;;;5077534;28;20062;-90
2023/03/25 11:04:18;;;;;;;0.08;0.08;;;9.40;99.90;;;;;;5077549;28;20044;-90
2023/03/25 11:06:49;;;;;;;0.30;0.30;;;9.40;99.90;;;;;;5078200;28;20046;-91
2023/03/25 11:09:25;;;;;;;0.20;0.20;;;9.40;99.90;;;;;;5077906;28;20051;-90
2023/03/25 11:11:52;;;;;;;0.10;0.10;;;9.40;99.90;;;;;;5078118;28;20039;-90
2023/03/25 11:14:27;;;;;;;0.30;0.22;;;9.40;99.90;;;;;;5077908;28;20143;-91
2023/03/25 11:17:04;;;;;;;0.85;0.20;;;9.40;99.90;;;;;;5077296;28;20493;-90
2023/03/25 11:19:32;;;;;;;;;;;9.40;99.90;;;;;;5112686;28;20047;-89
2023/03/25 11:22:08;;;;;;;0.08;0.08;;;9.30;99.90;;;;;;5079660;28;19920;-87
2023/03/25 11:24:41;;;;;;;0.10;0.10;;;9.40;99.90;;;;;;5081406;28;20047;-89
2023/03/25 11:27:07;;;;;;;0.30;0.20;;;9.40;99.90;;;;;;5098017;28;20040;-87
2023/03/25 11:29:36;;;;;;;0.10;0.10;;;9.40;99.90;;;;;;5097964;28;20043;-90
2023/03/25 11:32:11;;;;;;;0.10;0.10;;;9.40;99.90;;;;;;5097275;28;20096;-87
2023/03/25 11:34:40;;;;;;;0.40;0.40;;;8.60;99.90;;;;;;5081192;28;20092;-91
2023/03/25 11:37:29;;;;;;;0.00;0.00;;;9.60;99.90;;;;;;5098013;28;20051;-89
2023/03/25 11:39:55;;;;;;;0.15;0.15;;;9.60;99.90;;;;;;5081649;28;20054;-89
2023/03/25 11:42:24;;;;;;;0.13;0.13;;;9.70;99.90;;;;;;5097493;28;20040;-88
2023/03/25 11:44:55;;;;;;;0.38;0.17;;;9.80;99.90;;;;;;5081310;28;20062;-88
2023/03/25 11:47:31;;;;;;;0.00;0.00;;;9.90;99.90;;;;;;5080874;28;20052;-88
2023/03/25 11:49:57;;;;;;;0.13;0.13;;;9.90;99.90;;;;;;5081249;28;20043;-89
2023/03/25 11:52:34;;;;;;;0.80;0.10;;;9.90;99.90;;;;;;5080771;28;20050;-88
2023/03/25 11:55:00;;;;;;;0.25;0.20;;;9.90;99.90;;;;;;5081056;28;20063;-89
2023/03/25 11:57:31;;;;;;;0.15;0.15;;;9.90;99.90;;;;;;5080558;28;20047;-88
2023/03/25 12:00:11;;;;;;;0.10;0.10;;;9.80;99.90;;;;;;5114756;28;20126;-89
2023/03/25 12:02:39;;;;;;;0.00;0.00;;;9.80;99.90;;;;;;5080687;28;20566;-84
2023/03/25 12:05:14;;;;;;;0.05;0.05;;;9.90;99.90;;;;;;5097356;28;20056;-89
2023/03/25 12:07:42;;;;;;;0.10;0.10;;;9.90;99.90;;;;;;5097555;28;20044;-93
2023/03/25 12:10:32;;;;;;;1.45;0.20;;;9.90;99.90;;;;;;5097229;28;20051;-91
2023/03/25 12:13:04;;;;;;;0.00;0.00;;;9.90;99.90;;;;;;5096161;28;20533;-86
2023/03/25 12:15:50;;;;;;;0.63;0.10;;;9.90;99.90;;;;;;5079014;28;20065;-89
2023/03/25 12:18:55;;;;;;;0.03;0.03;;;10.00;99.90;;;;;;5075986;28;20071;-92
2023/03/25 12:21:41;;;;;;;0.00;0.00;;;10.10;99.90;;;;;;5054252;28;20049;-93
2023/03/25 12:24:21;;;;;;;0.25;0.00;;;10.10;99.90;;;;;;5024171;28;20052;-89
2023/03/25 12:27:07;;;;;;;0.65;0.50;;;10.20;99.90;;;;;;5047504;28;20088;-91
2023/03/25 12:29:53;;;;;;;0.10;0.10;;;10.20;99.90;;;;;;5059705;28;20059;-91
2023/03/25 12:32:38;;;;;;;0.10;0.10;;;10.50;99.90;;;;;;5059168;28;20079;-92
2023/03/25 12:35:43;;;;;;;0.57;0.20;;;10.80;99.90;;;;;;5076396;28;20044;-89
2023/03/25 12:38:31;;;;;;;0.20;0.05;;;10.90;99.90;;;;;;5055834;28;20055;-90
2023/03/25 12:40:57;;;;;;;0.00;0.00;;;10.90;99.90;;;;;;5076723;28;20055;-86
2023/03/25 12:43:53;;;;;;;0.10;0.10;;;10.80;99.90;;;;;;5059702;28;20044;-92
2023/03/25 12:46:52;;;;;;;0.45;0.10;;;10.90;99.90;;;;;;5076087;28;20047;-92
2023/03/25 12:49:43;;;;;;;0.00;0.00;;;10.80;99.90;;;;;;5059634;28;20118;-92
2023/03/25 12:52:30;;;;;;;0.00;0.00;;;10.70;99.90;;;;;;5059490;28;20094;-89
2023/03/25 12:55:23;;;;;;;0.20;0.20;;;10.70;99.90;;;;;;5076053;28;20040;-92
2023/03/25 12:58:03;;;;;;;0.00;0.00;;;10.60;99.90;;;;;;5059496;28;20052;-91
2023/03/25 13:00:36;;;;;;;0.00;0.00;;;10.60;99.90;;;;;;5075601;28;20105;-89
2023/03/25 13:03:22;;;;;;;1.25;0.30;;;10.80;99.90;;;;;;5059515;28;20056;-91
2023/03/25 13:05:56;;;;;;;0.20;0.20;;;10.80;99.90;;;;;;5075999;28;20390;-91
2023/03/25 13:08:40;;;;;;;0.00;0.00;;;11.10;99.90;;;;;;5075127;28;20154;-90
2023/03/25 13:11:41;;;;;;;0.00;0.00;;;11.40;99.90;;;;;;5075799;28;20047;-89
2023/03/25 13:14:24;;;;;;;0.10;0.10;;;11.40;99.90;;;;;;5028389;28;20418;-93
2023/03/25 13:16:54;;;;;;;0.80;0.20;;;11.40;99.90;;;;;;5075380;28;20048;-87
2023/03/25 13:19:26;;;;;;;0.10;0.10;;;11.30;99.90;;;;;;5091284;28;20056;-88
2023/03/25 13:21:57;;;;;;;0.20;0.05;;;11.40;99.90;;;;;;5113791;28;20044;-92
2023/03/25 13:24:28;;;;;;;0.00;0.00;;;11.40;99.90;;;;;;5095395;28;20040;-92
2023/03/25 13:26:55;;;;;;;0.10;0.10;;;11.30;99.90;;;;;;5078851;28;20059;-92